Grenoble

Airport
ICAO code: 
LFLS
Summary
ICAO Region: 
EUR
Territory: 
Location: 
Grenoble, Rhone-Alpes,
Coordinates: 
Aerial View: 
45° 21' 46.512" N, 5° 19' 42.644" E
Metar
Observation
LFLS 281530Z AUTO 23006KT 1200 1100 R09/1800U R27/1500U -SN BR BKN002 BKN006 OVC013 00/00 Q1000 TEMPO 0700 SN
Station
Grenoble / St. Geoirs
Date/Time
2021-11-28 15:30:00
Wind direction
230°
Wind speed
06 kts
Lowest cloud amount
broken clouds
Temperature
9°C
Dew point
18°C
Humidity
179%
QNH
1000 hPa
Weather condition
n/a

Description

International airport serving resort of Grenoble.

Climatology

Humid “subtropical” climate (Köppen climate classification Cfa) - characterized by hot, humid summers and cool winters. Significant amounts of precipitation occur in all seasons in most areas. Winter rainfall (and sometimes snowfall) is associated with large storms that the westerlies steer from west to east. Most summer rainfall occurs during thunderstorms.

Runways

Designator Length Width Surface Rops
9/27 3050 45 ASP Yes/Yes
Airport map: 
Aerial View: 

Accidents and Serious Incidents at or in the vicinity of LFLS

SKYbrary Partners:

Safety knowledge contributed by: